Time;durP1;ratioP1;P1;durP2;ratioP2;P2;SDS_P1;SDS_P2;PMS_P1;PMS_P2;Temp;Humidity;BMP_temperature;BMP_pressure;BME280_temperature;BME280_humidity;BME280_pressure;Samples;Min_cycle;Max_cycle;Signal;HPM_P1;HPM_P2
2023/12/31 00:00:09;;;;;;;1999.90;999.90;;;0.90;98.30;;;;;;5028766;28;20793;-87
2023/12/31 00:02:36;;;;;;;1999.90;999.90;;;0.90;98.40;;;;;;5046831;28;20048;-87
2023/12/31 00:05:02;;;;;;;1999.90;999.90;;;0.80;98.30;;;;;;5045400;28;20056;-85
2023/12/31 00:07:28;;;;;;;1999.90;999.90;;;0.70;98.40;;;;;;5045086;28;20056;-86
2023/12/31 00:09:53;;;;;;;1999.90;999.90;;;0.70;98.30;;;;;;5044729;28;20036;-87
2023/12/31 00:12:19;;;;;;;1999.90;999.90;;;0.60;98.30;;;;;;5045203;28;20032;-90
2023/12/31 00:14:50;;;;;;;1999.90;999.90;;;0.60;98.30;;;;;;5043125;28;20029;-88
2023/12/31 00:17:16;;;;;;;1999.90;999.90;;;0.60;98.40;;;;;;5045561;28;20029;-84
2023/12/31 00:19:41;;;;;;;1999.90;999.90;;;0.60;98.60;;;;;;5046023;28;20083;-88
2023/12/31 00:22:08;;;;;;;1999.90;999.90;;;0.80;98.60;;;;;;5042856;28;20114;-86
2023/12/31 00:24:34;;;;;;;1999.90;999.90;;;0.60;98.50;;;;;;5016450;28;20045;-87
2023/12/31 00:27:00;;;;;;;1999.90;999.90;;;0.60;98.50;;;;;;5026992;28;20064;-87
2023/12/31 00:29:28;;;;;;;1999.90;999.90;;;0.60;98.50;;;;;;5045789;28;20036;-88
2023/12/31 00:31:53;;;;;;;1999.90;999.90;;;0.60;98.50;;;;;;5042511;28;20033;-88
2023/12/31 00:34:20;;;;;;;1999.90;999.90;;;0.70;98.60;;;;;;5045101;28;20047;-88
2023/12/31 00:36:47;;;;;;;1999.90;999.90;;;0.70;98.70;;;;;;5027850;28;20064;-87
2023/12/31 00:39:13;;;;;;;1999.90;999.90;;;0.50;98.40;;;;;;5042142;28;20036;-87
2023/12/31 00:41:39;;;;;;;1999.90;999.90;;;0.50;98.50;;;;;;5042861;28;20041;-88
2023/12/31 00:44:05;;;;;;;1999.90;999.90;;;0.50;98.70;;;;;;5044270;28;20085;-90
2023/12/31 00:46:31;;;;;;;1999.90;999.90;;;0.50;98.80;;;;;;5040714;28;20083;-86
2023/12/31 00:48:56;;;;;;;1999.90;999.90;;;0.50;98.70;;;;;;5043630;28;20025;-87
2023/12/31 00:51:27;;;;;;;1999.90;999.90;;;0.50;98.70;;;;;;5037953;28;20527;-88
2023/12/31 00:53:56;;;;;;;1999.90;999.90;;;0.40;98.70;;;;;;5043662;28;20024;-85
2023/12/31 00:56:27;;;;;;;1999.90;999.90;;;0.50;98.80;;;;;;5041262;28;20036;-87
2023/12/31 00:58:52;;;;;;;1999.90;999.90;;;0.50;98.70;;;;;;5037751;28;20040;-89
2023/12/31 01:01:19;;;;;;;1999.90;999.90;;;0.40;98.70;;;;;;5027789;28;20029;-87
2023/12/31 01:03:45;;;;;;;1999.90;999.90;;;0.40;98.60;;;;;;5037468;28;20048;-88
2023/12/31 01:06:12;;;;;;;1999.90;999.90;;;0.40;98.60;;;;;;5042828;28;20188;-88
2023/12/31 01:08:40;;;;;;;1999.90;999.90;;;0.20;98.50;;;;;;5044315;28;20147;-87
2023/12/31 01:11:07;;;;;;;1999.90;999.90;;;0.20;98.50;;;;;;5042648;28;20028;-87
2023/12/31 01:13:32;;;;;;;1999.90;999.90;;;0.10;98.40;;;;;;5043222;28;20032;-87
2023/12/31 01:15:58;;;;;;;1999.90;999.90;;;0.10;98.30;;;;;;5044389;28;20025;-87
2023/12/31 01:18:25;;;;;;;1999.90;999.90;;;0.10;98.40;;;;;;5036667;28;20088;-88
2023/12/31 01:20:51;;;;;;;1999.90;999.90;;;0.10;98.40;;;;;;5025022;28;20123;-86
2023/12/31 01:23:16;;;;;;;1999.90;999.90;;;-0.10;98.30;;;;;;5051898;28;20124;-87
2023/12/31 01:25:42;;;;;;;1999.90;999.90;;;0.00;98.30;;;;;;5042244;28;20064;-87
2023/12/31 01:28:08;;;;;;;1999.90;999.90;;;0.00;98.40;;;;;;5040548;28;20061;-89
2023/12/31 01:30:34;;;;;;;1999.90;999.90;;;-0.20;98.20;;;;;;5028965;28;20099;-89
2023/12/31 01:32:59;;;;;;;1999.90;999.90;;;-0.10;98.30;;;;;;5045902;28;20468;-88
2023/12/31 01:35:25;;;;;;;1999.90;999.90;;;-0.40;98.20;;;;;;5040833;28;20083;-86
2023/12/31 01:37:51;;;;;;;1999.90;999.90;;;-0.30;98.30;;;;;;5042875;28;20033;-86
2023/12/31 01:40:18;;;;;;;1999.90;999.90;;;-0.20;98.40;;;;;;5044131;28;20043;-85
2023/12/31 01:42:44;;;;;;;1999.90;999.90;;;-0.30;98.30;;;;;;5041390;28;20083;-83
2023/12/31 01:45:10;;;;;;;1999.90;999.90;;;-0.30;98.30;;;;;;5042257;28;20037;-86
2023/12/31 01:47:38;;;;;;;1999.90;999.90;;;-0.30;98.30;;;;;;5043139;28;20036;-86
2023/12/31 01:50:05;;;;;;;1999.90;999.90;;;-0.30;98.20;;;;;;5026310;28;20041;-83
2023/12/31 01:52:33;;;;;;;1999.90;999.90;;;-0.30;98.20;;;;;;5043481;28;20544;-84
2023/12/31 01:55:03;;;;;;;1999.90;999.90;;;-0.30;98.10;;;;;;5042910;28;20717;-86
2023/12/31 01:57:31;;;;;;;1999.90;999.90;;;-0.30;98.20;;;;;;5038363;28;20036;-83
2023/12/31 01:59:58;;;;;;;1999.90;999.90;;;-0.20;98.30;;;;;;5028473;28;20047;-84
2023/12/31 02:02:24;;;;;;;1999.90;999.90;;;-0.20;98.30;;;;;;5044125;28;20173;-84
2023/12/31 02:04:51;;;;;;;1999.90;999.90;;;-0.20;98.30;;;;;;5039444;28;20112;-87
2023/12/31 02:07:20;;;;;;;1999.90;999.90;;;-0.20;98.50;;;;;;5044690;28;20704;-87
2023/12/31 02:09:46;;;;;;;1999.90;999.90;;;-0.20;98.60;;;;;;5040812;28;20033;-83
2023/12/31 02:12:11;;;;;;;1999.90;999.90;;;-0.20;98.50;;;;;;5045900;28;20025;-86
2023/12/31 02:14:37;;;;;;;1999.90;999.90;;;-0.20;98.60;;;;;;5043391;28;20507;-83
2023/12/31 02:17:03;;;;;;;1999.90;999.90;;;-0.20;98.60;;;;;;5040158;28;20112;-85
2023/12/31 02:19:29;;;;;;;1999.90;999.90;;;-0.20;98.50;;;;;;5040672;28;20519;-86
2023/12/31 02:21:54;;;;;;;1999.90;999.90;;;0.00;98.80;;;;;;5041779;28;20242;-85
2023/12/31 02:24:28;;;;;;;1999.90;999.90;;;-0.10;98.60;;;;;;5040627;28;20518;-83
2023/12/31 02:26:53;;;;;;;1999.90;999.90;;;-0.20;98.70;;;;;;5044630;28;20487;-85
2023/12/31 02:29:19;;;;;;;1999.90;999.90;;;-0.10;98.70;;;;;;5041961;28;20033;-86
2023/12/31 02:31:45;;;;;;;1999.90;999.90;;;-0.20;98.60;;;;;;5041553;28;20032;-86
2023/12/31 02:34:11;;;;;;;1999.90;999.90;;;-0.30;98.60;;;;;;5039661;28;20115;-85
2023/12/31 02:36:40;;;;;;;1999.90;999.90;;;-0.40;98.60;;;;;;5043148;28;20037;-84
2023/12/31 02:39:06;;;;;;;1999.90;999.90;;;-0.40;98.60;;;;;;5041714;28;20032;-85
2023/12/31 02:41:32;;;;;;;1999.90;999.90;;;-0.40;98.60;;;;;;5044376;28;20090;-85
2023/12/31 02:43:58;;;;;;;1999.90;999.90;;;-0.30;98.70;;;;;;5038986;28;20033;-84
2023/12/31 02:46:23;;;;;;;1999.90;999.90;;;-0.30;98.70;;;;;;5041156;28;20147;-84
2023/12/31 02:48:50;;;;;;;1999.90;999.90;;;-0.40;98.70;;;;;;5042268;28;20138;-84
2023/12/31 02:51:15;;;;;;;1999.90;999.90;;;-0.30;98.70;;;;;;5042011;28;20496;-84
2023/12/31 02:53:41;;;;;;;1999.90;999.90;;;-0.30;98.70;;;;;;5053509;28;20578;-85
2023/12/31 02:56:07;;;;;;;1999.90;999.90;;;-0.30;98.70;;;;;;5043996;28;20549;-81
2023/12/31 02:58:33;;;;;;;1999.90;999.90;;;-0.40;98.60;;;;;;5042691;28;20049;-86
2023/12/31 03:01:01;;;;;;;1999.90;999.90;;;-0.50;98.40;;;;;;5043640;28;20063;-83
2023/12/31 03:03:27;;;;;;;1999.90;999.90;;;-0.60;98.40;;;;;;5037208;28;20037;-82
2023/12/31 03:05:52;;;;;;;1999.90;999.90;;;-0.60;98.50;;;;;;5041406;28;20029;-83
2023/12/31 03:08:18;;;;;;;1999.90;999.90;;;-0.60;98.50;;;;;;5040685;28;20025;-84
2023/12/31 03:10:44;;;;;;;1999.90;999.90;;;-0.90;98.30;;;;;;5054007;28;20037;-85
2023/12/31 03:13:10;;;;;;;1999.90;999.90;;;-0.90;98.50;;;;;;5038653;28;20098;-85
2023/12/31 03:15:35;;;;;;;1999.90;999.90;;;-0.80;98.50;;;;;;5039449;28;20036;-82
2023/12/31 03:18:01;;;;;;;1999.90;999.90;;;-0.80;98.50;;;;;;5039385;28;20068;-85
2023/12/31 03:20:27;;;;;;;1999.90;999.90;;;-0.80;98.40;;;;;;5043975;28;20032;-84
2023/12/31 03:22:54;;;;;;;1999.90;999.90;;;-0.80;98.30;;;;;;5038655;28;20372;-83
2023/12/31 03:25:20;;;;;;;1999.90;999.90;;;-0.90;98.40;;;;;;5042002;28;20090;-85
2023/12/31 03:27:51;;;;;;;1999.90;999.90;;;-0.90;98.40;;;;;;5040004;28;20387;-82
2023/12/31 03:30:18;;;;;;;1999.90;999.90;;;-0.90;98.30;;;;;;5046828;28;20506;-84
2023/12/31 03:32:44;;;;;;;1999.90;999.90;;;-0.80;98.50;;;;;;5031579;28;20037;-82
2023/12/31 03:35:10;;;;;;;1999.90;999.90;;;-1.00;98.20;;;;;;5042915;28;20113;-86
2023/12/31 03:37:36;;;;;;;1999.90;999.90;;;-1.10;98.10;;;;;;5044182;28;20048;-81
2023/12/31 03:40:04;;;;;;;1999.90;999.90;;;-1.10;98.10;;;;;;5049092;28;20029;-84
2023/12/31 03:42:30;;;;;;;1999.90;999.90;;;-1.10;98.30;;;;;;5044650;28;20041;-82
2023/12/31 03:44:56;;;;;;;1999.90;999.90;;;-1.00;98.40;;;;;;5047511;28;20091;-85
2023/12/31 03:47:23;;;;;;;1999.90;999.90;;;-1.00;98.30;;;;;;5031837;28;20025;-82
2023/12/31 03:49:48;;;;;;;1999.90;999.90;;;-1.00;98.20;;;;;;5042875;28;20037;-84
2023/12/31 03:52:14;;;;;;;1999.90;999.90;;;-0.90;98.30;;;;;;5044155;28;20040;-83
2023/12/31 03:54:43;;;;;;;1999.90;999.90;;;-0.90;98.30;;;;;;5045975;28;20042;-86
2023/12/31 03:57:10;;;;;;;1999.90;999.90;;;-1.00;98.10;;;;;;5049469;28;20060;-83
2023/12/31 03:59:37;;;;;;;1999.90;999.90;;;-1.30;97.70;;;;;;5043045;28;20410;-82
2023/12/31 04:02:03;;;;;;;1999.90;999.90;;;-1.30;98.00;;;;;;5046457;28;20025;-84
2023/12/31 04:04:32;;;;;;;1999.90;999.90;;;-1.30;98.10;;;;;;5043591;28;20036;-82
2023/12/31 04:06:58;;;;;;;1999.90;999.90;;;-1.10;98.20;;;;;;5048755;28;20022;-84
2023/12/31 04:09:23;;;;;;;1999.90;999.90;;;-1.10;98.20;;;;;;5029471;28;20041;-84
2023/12/31 04:11:49;;;;;;;1999.90;999.90;;;-1.30;98.00;;;;;;5043665;28;20026;-85
2023/12/31 04:14:15;;;;;;;1999.90;999.90;;;-1.20;98.20;;;;;;5050897;28;20060;-84
2023/12/31 04:16:41;;;;;;;1999.90;999.90;;;-1.20;98.10;;;;;;5049509;28;20120;-81
2023/12/31 04:19:07;;;;;;;1999.90;999.90;;;-1.20;98.10;;;;;;5048904;28;20041;-82
2023/12/31 04:21:33;;;;;;;1999.90;999.90;;;-1.40;97.90;;;;;;5052490;28;20036;-85
2023/12/31 04:24:00;;;;;;;1999.90;999.90;;;-1.30;98.00;;;;;;5037031;28;20091;-84
2023/12/31 04:26:30;;;;;;;1999.90;999.90;;;-1.40;98.00;;;;;;5052669;28;20049;-86
2023/12/31 04:28:57;;;;;;;1999.90;999.90;;;-1.40;98.10;;;;;;5053544;28;20052;-83
2023/12/31 04:31:24;;;;;;;1999.90;999.90;;;-1.30;98.20;;;;;;5050106;28;20045;-84
2023/12/31 04:33:50;;;;;;;1999.90;999.90;;;-1.30;98.20;;;;;;5051154;28;20045;-84
2023/12/31 04:36:17;;;;;;;1999.90;999.90;;;-1.10;98.30;;;;;;5038831;28;20044;-82
2023/12/31 04:38:43;;;;;;;1999.90;999.90;;;-1.30;98.00;;;;;;5054024;28;20036;-82
2023/12/31 04:41:19;;;;;;;1999.90;999.90;;;-1.40;98.10;;;;;;5037615;28;20037;-84
2023/12/31 04:43:45;;;;;;;1999.90;999.90;;;-1.40;98.20;;;;;;5053870;28;20021;-83
2023/12/31 04:46:10;;;;;;;1999.90;999.90;;;-1.40;98.40;;;;;;5054286;28;20035;-83
2023/12/31 04:48:40;;;;;;;1999.90;999.90;;;-1.30;98.50;;;;;;5053305;28;20049;-84
2023/12/31 04:51:05;;;;;;;1999.90;999.90;;;-1.30;98.50;;;;;;5053847;28;20057;-83
2023/12/31 04:53:36;;;;;;;1999.90;999.90;;;-1.20;98.60;;;;;;5051545;28;20028;-84
2023/12/31 04:56:02;;;;;;;1999.90;999.90;;;-1.30;98.80;;;;;;5052363;28;20039;-87
2023/12/31 04:58:28;;;;;;;1999.90;999.90;;;-1.20;98.80;;;;;;5054695;28;20104;-86
2023/12/31 05:00:56;;;;;;;1999.90;999.90;;;-1.30;98.80;;;;;;5035763;28;20056;-82
2023/12/31 05:03:21;;;;;;;1999.90;999.90;;;-1.20;98.80;;;;;;5022291;28;20495;-86
2023/12/31 05:05:47;;;;;;;1999.90;999.90;;;-1.10;99.00;;;;;;5060612;28;20079;-83
2023/12/31 05:08:13;;;;;;;1999.90;999.90;;;-1.00;98.90;;;;;;5053455;28;20514;-82
2023/12/31 05:10:40;;;;;;;1999.90;999.90;;;-1.00;98.90;;;;;;5047090;28;20131;-81
2023/12/31 05:13:06;;;;;;;1999.90;999.90;;;-1.00;99.00;;;;;;5062539;28;20033;-85
2023/12/31 05:15:32;;;;;;;1999.90;999.90;;;-0.90;98.90;;;;;;5050093;28;20037;-83
2023/12/31 05:17:58;;;;;;;1999.90;999.90;;;-1.00;98.80;;;;;;5048423;28;20040;-84
2023/12/31 05:20:24;;;;;;;1999.90;999.90;;;-1.00;98.70;;;;;;5051281;28;20036;-83
2023/12/31 05:22:53;;;;;;;1999.90;999.90;;;-1.00;98.70;;;;;;5046769;28;20040;-83
2023/12/31 05:25:20;;;;;;;1999.90;999.90;;;-0.90;98.70;;;;;;5043329;28;20042;-83
2023/12/31 05:27:46;;;;;;;1999.90;999.90;;;-1.00;98.60;;;;;;5047624;28;20029;-87
2023/12/31 05:30:12;;;;;;;1999.90;999.90;;;-1.10;98.50;;;;;;5030719;28;20112;-82
2023/12/31 05:32:38;;;;;;;1999.90;999.90;;;-1.00;98.50;;;;;;5044881;28;20044;-84
2023/12/31 05:35:04;;;;;;;1999.90;999.90;;;-1.00;98.50;;;;;;5044450;28;20036;-86
2023/12/31 05:37:30;;;;;;;1999.90;999.90;;;-0.90;98.60;;;;;;5039952;28;20052;-88
2023/12/31 05:39:56;;;;;;;1999.90;999.90;;;-1.10;98.40;;;;;;5038299;28;20025;-83
2023/12/31 05:42:21;;;;;;;1999.90;999.90;;;-1.00;98.70;;;;;;5047335;28;20079;-84
2023/12/31 05:44:47;;;;;;;1999.90;999.90;;;-0.90;99.00;;;;;;5049662;28;20036;-84
2023/12/31 05:47:13;;;;;;;1999.90;999.90;;;-0.70;99.10;;;;;;5048782;28;20059;-84
2023/12/31 05:49:38;;;;;;;1999.90;999.90;;;-0.60;99.40;;;;;;5051188;28;20039;-82
2023/12/31 05:52:08;;;;;;;1999.90;999.90;;;-0.60;99.10;;;;;;5039746;28;20059;-86
2023/12/31 05:54:39;;;;;;;1999.90;999.90;;;-0.70;99.10;;;;;;5047880;28;20091;-85
2023/12/31 05:57:05;;;;;;;;;;;-0.80;99.00;;;;;;5029210;28;20131;-83
2023/12/31 05:59:31;;;;;;;1999.90;999.90;;;-0.90;98.80;;;;;;5051120;28;19912;-81
2023/12/31 06:01:57;;;;;;;1999.90;999.90;;;-1.00;98.80;;;;;;5050751;28;20326;-85
2023/12/31 06:04:24;;;;;;;1999.90;999.90;;;-1.20;98.70;;;;;;5033446;28;20037;-84
2023/12/31 06:06:51;;;;;;;1999.90;999.90;;;-1.10;99.00;;;;;;5046532;28;20064;-85
2023/12/31 06:09:17;;;;;;;1999.90;999.90;;;-1.00;99.10;;;;;;5052438;28;20025;-83
2023/12/31 06:11:42;;;;;;;1999.90;999.90;;;-0.80;98.90;;;;;;5048764;28;20151;-84
2023/12/31 06:14:09;;;;;;;1999.90;999.90;;;-0.80;99.10;;;;;;5052100;28;20120;-81
2023/12/31 06:16:35;;;;;;;1999.90;999.90;;;-0.80;99.00;;;;;;5048304;28;20506;-84
2023/12/31 06:19:05;;;;;;;1999.90;999.90;;;-0.80;99.00;;;;;;5043017;28;20044;-82
2023/12/31 06:21:30;;;;;;;1999.90;999.90;;;-0.90;98.80;;;;;;5030186;28;20167;-84
2023/12/31 06:23:57;;;;;;;1999.90;999.90;;;-0.80;98.90;;;;;;5041684;28;20029;-83
2023/12/31 06:26:24;;;;;;;1999.90;999.90;;;-0.80;98.80;;;;;;5029956;28;20036;-84
2023/12/31 06:28:56;;;;;;;1999.90;999.90;;;-0.80;98.90;;;;;;5042735;28;20071;-85
2023/12/31 06:31:22;;;;;;;1999.90;999.90;;;-0.80;98.80;;;;;;5045483;28;20057;-83
2023/12/31 06:33:47;;;;;;;1999.90;999.90;;;-0.90;98.70;;;;;;5047920;28;20025;-82
2023/12/31 06:36:13;;;;;;;1999.90;999.90;;;-0.90;98.90;;;;;;5047530;28;20458;-83
2023/12/31 06:38:40;;;;;;;1999.90;999.90;;;-0.90;98.80;;;;;;5026888;28;20114;-84
2023/12/31 06:41:09;;;;;;;1999.90;999.90;;;-1.00;98.60;;;;;;5046625;28;20032;-85
2023/12/31 06:43:35;;;;;;;1999.90;999.90;;;-0.90;98.60;;;;;;5047511;28;20149;-81
2023/12/31 06:46:05;;;;;;;1999.90;999.90;;;-1.10;98.50;;;;;;5045603;28;20098;-82
2023/12/31 06:48:31;;;;;;;1999.90;999.90;;;-1.00;98.70;;;;;;5048802;28;20139;-82
2023/12/31 06:50:57;;;;;;;1999.90;999.90;;;-0.90;98.70;;;;;;5045871;28;20120;-81
2023/12/31 06:53:23;;;;;;;1999.90;999.90;;;-1.00;98.50;;;;;;5046824;28;20029;-83
2023/12/31 06:55:49;;;;;;;1999.90;999.90;;;-0.90;98.60;;;;;;5048480;28;20032;-84
2023/12/31 06:58:15;;;;;;;1999.90;999.90;;;-0.90;98.40;;;;;;5043140;28;20037;-82
2023/12/31 07:00:41;;;;;;;1999.90;999.90;;;-0.90;98.80;;;;;;5042992;28;20030;-84
2023/12/31 07:03:10;;;;;;;1999.90;999.90;;;-1.00;98.20;;;;;;5055018;28;20557;-85
2023/12/31 07:05:37;;;;;;;1999.90;999.90;;;-0.80;98.30;;;;;;5050932;28;20041;-83
2023/12/31 07:08:04;;;;;;;1999.90;999.90;;;-0.60;98.30;;;;;;5066130;28;20029;-83
2023/12/31 07:10:30;;;;;;;1999.90;999.90;;;-0.80;97.60;;;;;;5044109;28;20037;-84
2023/12/31 07:12:58;;;;;;;1999.90;999.90;;;-0.70;97.90;;;;;;5050506;28;20095;-87
2023/12/31 07:15:24;;;;;;;1999.90;999.90;;;-0.70;97.80;;;;;;5049858;28;20083;-84
2023/12/31 07:17:51;;;;;;;1999.90;999.90;;;-0.70;97.70;;;;;;5045377;28;20041;-84
2023/12/31 07:20:17;;;;;;;1999.90;999.90;;;-0.80;97.40;;;;;;5046700;28;20112;-85
2023/12/31 07:22:43;;;;;;;1999.90;999.90;;;-0.70;97.50;;;;;;5049519;28;20089;-83
2023/12/31 07:25:09;;;;;;;1999.90;999.90;;;-0.60;97.50;;;;;;5054835;28;20515;-81
2023/12/31 07:27:35;;;;;;;1999.90;999.90;;;-0.60;97.50;;;;;;5053401;28;20040;-83
2023/12/31 07:30:02;;;;;;;1999.90;999.90;;;-0.50;97.50;;;;;;5052243;28;20032;-83
2023/12/31 07:32:27;;;;;;;1999.90;999.90;;;-0.30;97.60;;;;;;5035395;28;20029;-80
2023/12/31 07:34:53;;;;;;;1999.90;999.90;;;-0.50;97.40;;;;;;5052099;28;20036;-81
2023/12/31 07:37:19;;;;;;;1999.90;999.90;;;-0.30;97.50;;;;;;5034191;28;20479;-84
2023/12/31 07:39:44;;;;;;;1999.90;999.90;;;-0.30;97.50;;;;;;5049055;28;20033;-82
2023/12/31 07:42:10;;;;;;;1999.90;999.90;;;-0.30;97.50;;;;;;5053695;28;20090;-82
2023/12/31 07:44:36;;;;;;;1999.90;999.90;;;-0.10;97.60;;;;;;5038941;28;20114;-81
2023/12/31 07:47:03;;;;;;;1999.90;999.90;;;0.00;97.60;;;;;;5054377;28;20491;-84
2023/12/31 07:49:30;;;;;;;1999.90;999.90;;;-0.10;97.40;;;;;;5050601;28;20159;-86
2023/12/31 07:51:56;;;;;;;1999.90;999.90;;;-0.40;97.50;;;;;;5050406;28;20202;-84
2023/12/31 07:54:25;;;;;;;1999.90;999.90;;;-0.30;97.70;;;;;;5040287;28;20056;-80
2023/12/31 07:57:08;;;;;;;1999.90;999.90;;;-0.20;97.80;;;;;;5047451;28;20060;-86
2023/12/31 07:59:35;;;;;;;1999.90;999.90;;;-0.30;97.50;;;;;;5045669;28;20033;-83
2023/12/31 08:02:03;;;;;;;1999.90;999.90;;;-0.20;97.60;;;;;;5044943;28;20029;-82
2023/12/31 08:04:29;;;;;;;1999.90;999.90;;;-0.20;97.60;;;;;;5045106;28;20118;-83
2023/12/31 08:06:54;;;;;;;1999.90;999.90;;;-0.10;97.60;;;;;;5046138;28;20033;-81
2023/12/31 08:09:23;;;;;;;1999.90;999.90;;;-0.10;97.60;;;;;;5046044;28;20029;-87
2023/12/31 08:11:48;;;;;;;1999.90;999.90;;;-0.20;97.70;;;;;;5044828;28;20029;-84
2023/12/31 08:14:14;;;;;;;1999.90;999.90;;;-0.10;97.50;;;;;;5038209;28;20033;-84
2023/12/31 08:16:40;;;;;;;1999.90;999.90;;;-0.30;97.20;;;;;;5045045;28;20621;-84
2023/12/31 08:19:06;;;;;;;1999.90;999.90;;;-0.20;97.50;;;;;;5045980;28;20252;-81
2023/12/31 08:21:34;;;;;;;1999.90;999.90;;;0.00;97.50;;;;;;5044520;28;20384;-80
2023/12/31 08:24:00;;;;;;;1999.90;999.90;;;-0.10;97.50;;;;;;5045249;28;20156;-82
2023/12/31 08:26:26;;;;;;;1999.90;999.90;;;0.10;97.70;;;;;;5044890;28;20052;-81
2023/12/31 08:28:52;;;;;;;1999.90;999.90;;;0.10;97.60;;;;;;5050303;28;20471;-81
2023/12/31 08:31:17;;;;;;;1999.90;999.90;;;0.20;97.60;;;;;;5046668;28;20021;-82
2023/12/31 08:33:43;;;;;;;1999.90;999.90;;;0.20;97.50;;;;;;5044187;28;20043;-81
2023/12/31 08:36:15;;;;;;;1999.90;999.90;;;0.30;97.50;;;;;;5043222;28;20041;-84
2023/12/31 08:38:41;;;;;;;1999.90;999.90;;;0.30;97.30;;;;;;5044198;28;20326;-82
2023/12/31 08:41:07;;;;;;;1999.90;999.90;;;0.40;97.40;;;;;;5041629;28;20474;-85
2023/12/31 08:43:34;;;;;;;1999.90;999.90;;;0.60;97.20;;;;;;5044777;28;20033;-89
2023/12/31 08:46:00;;;;;;;1999.90;999.90;;;0.70;97.00;;;;;;5039572;28;20083;-80
2023/12/31 08:48:31;;;;;;;1999.90;999.90;;;0.70;96.70;;;;;;5040489;28;20026;-89
2023/12/31 08:50:56;;;;;;;1999.90;999.90;;;0.60;96.40;;;;;;5040702;28;20092;-88
2023/12/31 08:53:22;;;;;;;1999.90;999.90;;;0.50;96.70;;;;;;5041677;28;20479;-89
2023/12/31 08:55:52;;;;;;;1999.90;999.90;;;0.60;96.60;;;;;;5042920;28;20105;-90
2023/12/31 08:58:18;;;;;;;1999.90;999.90;;;0.70;96.70;;;;;;5043492;28;20040;-90
2023/12/31 09:00:44;;;;;;;1999.90;999.90;;;1.00;96.60;;;;;;5043114;28;20033;-88
2023/12/31 09:03:10;;;;;;;1999.90;999.90;;;1.10;96.30;;;;;;5041093;28;20045;-88
2023/12/31 09:05:35;;;;;;;1999.90;999.90;;;1.20;95.90;;;;;;5042259;28;20033;-89
2023/12/31 09:08:03;;;;;;;1999.90;999.90;;;1.30;95.90;;;;;;5042001;28;20124;-89
2023/12/31 09:10:34;;;;;;;1999.90;999.90;;;1.30;95.60;;;;;;5041766;28;20060;-91
2023/12/31 09:13:02;;;;;;;1999.90;999.90;;;1.10;95.40;;;;;;5039303;28;20163;-89
2023/12/31 09:15:28;;;;;;;1999.90;999.90;;;1.10;95.60;;;;;;5039924;28;20048;-89
2023/12/31 09:17:54;;;;;;;1999.90;999.90;;;1.20;95.60;;;;;;5037767;28;20041;-88
2023/12/31 09:20:21;;;;;;;1999.90;999.90;;;1.20;95.50;;;;;;5025607;28;20060;-89
2023/12/31 09:22:52;;;;;;;1999.90;999.90;;;1.20;95.00;;;;;;5042283;28;20394;-88
2023/12/31 09:25:18;;;;;;;1999.90;999.90;;;1.40;94.90;;;;;;5044733;28;20033;-89
2023/12/31 09:27:45;;;;;;;1999.90;999.90;;;1.50;94.80;;;;;;5038241;28;20549;-88
2023/12/31 09:30:11;;;;;;;1999.90;999.90;;;1.70;94.50;;;;;;5041558;28;20029;-87
2023/12/31 09:32:37;;;;;;;1999.90;999.90;;;1.70;94.60;;;;;;5043860;28;20031;-89
2023/12/31 09:35:03;;;;;;;1999.90;999.90;;;1.70;94.40;;;;;;5041834;28;20521;-89
2023/12/31 09:37:29;;;;;;;1999.90;999.90;;;1.80;94.40;;;;;;5041162;28;20159;-89
2023/12/31 09:39:55;;;;;;;1999.90;999.90;;;1.80;94.50;;;;;;5044254;28;20620;-90
2023/12/31 09:42:33;;;;;;;1999.90;999.90;;;2.00;95.20;;;;;;5041138;28;20073;-89
2023/12/31 09:45:03;;;;;;;1999.90;999.90;;;2.10;95.40;;;;;;5042275;28;20095;-88
2023/12/31 09:47:31;;;;;;;1999.90;999.90;;;2.30;95.70;;;;;;5039995;28;20025;-89
2023/12/31 09:49:58;;;;;;;1999.90;999.90;;;2.40;96.20;;;;;;5039698;28;20035;-90
2023/12/31 09:52:26;;;;;;;1999.90;999.90;;;2.50;95.90;;;;;;5039981;28;20893;-89
2023/12/31 09:54:54;;;;;;;1999.90;999.90;;;2.40;96.20;;;;;;5036175;28;20033;-91
2023/12/31 09:57:20;;;;;;;1999.90;999.90;;;2.40;96.10;;;;;;5038159;28;20037;-78
2023/12/31 09:59:48;;;;;;;1999.90;999.90;;;2.40;96.60;;;;;;5041209;28;20043;-78
2023/12/31 10:02:24;;;;;;;1999.90;999.90;;;2.50;97.00;;;;;;5044213;28;20044;-81
2023/12/31 10:04:53;;;;;;;1999.90;999.90;;;2.60;96.00;;;;;;5040671;28;20060;-78
2023/12/31 10:07:22;;;;;;;1999.90;999.90;;;2.70;95.60;;;;;;5041560;28;20051;-79
2023/12/31 10:09:49;;;;;;;1999.90;999.90;;;2.70;95.40;;;;;;5042195;28;20040;-80
2023/12/31 10:12:16;;;;;;;1999.90;999.90;;;2.80;95.90;;;;;;5041881;28;20037;-78
2023/12/31 10:14:41;;;;;;;1999.90;999.90;;;2.90;95.10;;;;;;5043843;28;20025;-78
2023/12/31 10:17:10;;;;;;;1999.90;999.90;;;3.00;95.40;;;;;;5044059;28;20716;-85
2023/12/31 10:19:36;;;;;;;1999.90;999.90;;;3.10;95.70;;;;;;5039966;28;20041;-78
2023/12/31 10:22:07;;;;;;;1999.90;999.90;;;3.10;94.80;;;;;;5041622;28;20403;-83
2023/12/31 10:24:33;;;;;;;1999.90;999.90;;;3.20;95.00;;;;;;5025271;28;20414;-81
2023/12/31 10:27:05;;;;;;;1999.90;999.90;;;3.20;95.00;;;;;;5036281;28;20079;-81
2023/12/31 10:29:35;;;;;;;1999.90;999.90;;;3.30;93.90;;;;;;5043868;28;20024;-79
2023/12/31 10:32:03;;;;;;;1999.90;999.90;;;3.30;92.30;;;;;;5039517;28;20037;-80
2023/12/31 10:34:30;;;;;;;1999.90;999.90;;;3.60;94.40;;;;;;5026597;28;20057;-81
2023/12/31 10:37:03;;;;;;;1999.90;999.90;;;3.60;91.70;;;;;;5038679;28;20030;-79
2023/12/31 10:39:31;;;;;;;1999.90;999.90;;;3.60;91.90;;;;;;5043314;28;20060;-80
2023/12/31 10:41:59;;;;;;;1999.90;999.90;;;3.80;91.80;;;;;;5045199;28;20049;-78
2023/12/31 10:44:26;;;;;;;1999.90;999.90;;;4.10;91.20;;;;;;5042919;28;20040;-79
2023/12/31 10:47:01;;;;;;;1999.90;999.90;;;4.20;89.60;;;;;;5040554;28;20059;-78
2023/12/31 10:49:30;;;;;;;1999.90;999.90;;;4.30;88.30;;;;;;5056454;28;20044;-78
2023/12/31 10:51:56;;;;;;;1999.90;999.90;;;4.40;87.50;;;;;;5044372;28;20041;-80
2023/12/31 10:54:34;;;;;;;1999.90;999.90;;;4.50;87.70;;;;;;5052689;28;20438;-81
2023/12/31 10:57:01;;;;;;;1999.90;999.90;;;4.60;86.50;;;;;;5042178;28;20032;-80
2023/12/31 10:59:29;;;;;;;1999.90;999.90;;;4.60;84.60;;;;;;5040208;28;20028;-79
2023/12/31 11:01:56;;;;;;;1999.90;999.90;;;4.70;85.10;;;;;;5039414;28;20025;-78
2023/12/31 11:04:26;;;;;;;1999.90;999.90;;;4.70;84.40;;;;;;5037392;28;20521;-81
2023/12/31 11:06:54;;;;;;;1999.90;999.90;;;4.80;85.00;;;;;;5044339;28;20033;-80
2023/12/31 11:09:21;;;;;;;1999.90;999.90;;;4.90;84.40;;;;;;5040208;28;20033;-84
2023/12/31 11:11:49;;;;;;;1999.90;999.90;;;5.10;85.50;;;;;;5043188;28;20483;-80
2023/12/31 11:14:19;;;;;;;1999.90;999.90;;;5.40;84.80;;;;;;5045934;28;20102;-79
2023/12/31 11:17:01;;;;;;;1999.90;999.90;;;5.60;84.40;;;;;;5043837;28;20025;-81
2023/12/31 11:20:05;;;;;;;1999.90;999.90;;;5.80;83.40;;;;;;5040000;28;20029;-80
2023/12/31 11:22:44;;;;;;;1999.90;999.90;;;6.00;83.50;;;;;;5038294;28;20068;-78
2023/12/31 11:25:10;;;;;;;1999.90;999.90;;;6.10;81.80;;;;;;5035755;28;20037;-75
2023/12/31 11:27:37;;;;;;;1999.90;999.90;;;6.10;82.20;;;;;;5038417;28;20064;-76
2023/12/31 11:30:04;;;;;;;1999.90;999.90;;;6.10;81.80;;;;;;5036574;28;20649;-78
2023/12/31 11:32:34;;;;;;;1999.90;999.90;;;6.30;80.60;;;;;;5040413;28;20037;-77
2023/12/31 11:35:04;;;;;;;1999.90;999.90;;;6.30;80.80;;;;;;5037714;28;20033;-80
2023/12/31 11:37:30;;;;;;;1999.90;999.90;;;6.30;80.80;;;;;;5025731;28;20047;-79
2023/12/31 11:39:55;;;;;;;1999.90;999.90;;;6.40;80.00;;;;;;5041906;28;20036;-80
2023/12/31 11:42:25;;;;;;;1999.90;999.90;;;6.50;79.70;;;;;;5037361;28;20056;-78
2023/12/31 11:44:53;;;;;;;1999.90;999.90;;;6.60;79.90;;;;;;5040497;28;20491;-80
2023/12/31 11:47:25;;;;;;;1999.90;999.90;;;6.60;79.90;;;;;;5041694;28;20029;-77
2023/12/31 11:49:54;;;;;;;1999.90;999.90;;;6.80;79.80;;;;;;5040445;28;20033;-82
2023/12/31 11:52:21;;;;;;;1999.90;999.90;;;7.00;79.80;;;;;;5041758;28;20661;-80
2023/12/31 11:54:51;;;;;;;1999.90;999.90;;;7.10;78.50;;;;;;5044518;28;20037;-77
2023/12/31 11:57:19;;;;;;;1999.90;999.90;;;7.20;78.10;;;;;;5043312;28;20613;-77
2023/12/31 11:59:45;;;;;;;1999.90;999.90;;;7.30;77.50;;;;;;5047191;28;20114;-80
2023/12/31 12:02:11;;;;;;;1999.90;999.90;;;7.50;77.30;;;;;;5044123;28;20613;-79